Time;durP1;ratioP1;P1;durP2;ratioP2;P2;SDS_P1;SDS_P2;PMS_P1;PMS_P2;Temp;Humidity;BMP_temperature;BMP_pressure;BME280_temperature;BME280_humidity;BME280_pressure;Samples;Min_cycle;Max_cycle;Signal;HPM_P1;HPM_P2
2021/03/20 00:00:12;;;;;;;20.73;12.20;;;-1.10;99.90;;;;;;5050312;28;20464;-72
2021/03/20 00:02:39;;;;;;;14.00;11.10;;;-1.20;99.90;;;;;;5050944;28;20459;-73
2021/03/20 00:05:06;;;;;;;16.00;10.97;;;-1.20;99.90;;;;;;5050779;28;20530;-72
2021/03/20 00:07:33;;;;;;;17.40;11.33;;;-1.30;99.90;;;;;;5050712;28;20535;-72
2021/03/20 00:10:00;;;;;;;13.30;10.30;;;-1.40;99.90;;;;;;5050476;28;20576;-73
2021/03/20 00:12:26;;;;;;;14.57;11.00;;;-1.50;99.90;;;;;;5050486;28;20547;-72
2021/03/20 00:14:53;;;;;;;15.03;10.17;;;-1.50;99.90;;;;;;5050922;28;20627;-72
2021/03/20 00:17:20;;;;;;;13.97;10.70;;;-1.50;99.90;;;;;;5054081;28;20954;-72
2021/03/20 00:19:46;;;;;;;15.30;11.80;;;-1.50;99.90;;;;;;5054497;28;20452;-72
2021/03/20 00:22:12;;;;;;;17.83;10.50;;;-1.60;99.90;;;;;;5054798;28;21259;-73
2021/03/20 00:24:39;;;;;;;22.10;13.50;;;-1.50;99.90;;;;;;5054759;28;21005;-73
2021/03/20 00:27:06;;;;;;;19.70;12.40;;;-1.50;99.90;;;;;;5054666;28;20443;-73
2021/03/20 00:29:32;;;;;;;14.23;10.60;;;-1.50;99.90;;;;;;5054622;28;20475;-73
2021/03/20 00:32:00;;;;;;;14.00;10.87;;;-1.60;99.90;;;;;;5054616;28;20610;-73
2021/03/20 00:34:27;;;;;;;16.83;12.10;;;-1.60;99.90;;;;;;5054419;28;20526;-72
2021/03/20 00:36:53;;;;;;;19.50;12.37;;;-1.50;99.90;;;;;;5054545;28;20482;-72
2021/03/20 00:39:20;;;;;;;12.70;10.53;;;-1.30;99.90;;;;;;5054429;28;20435;-72
2021/03/20 00:41:46;;;;;;;15.50;12.27;;;-1.20;99.90;;;;;;5054151;28;20502;-72
2021/03/20 00:44:13;;;;;;;18.60;12.60;;;-1.10;99.90;;;;;;5054414;28;20441;-72
2021/03/20 00:46:39;;;;;;;15.67;11.50;;;-1.10;99.90;;;;;;5054506;28;20523;-72
2021/03/20 00:49:07;;;;;;;16.63;10.27;;;-1.10;99.90;;;;;;5054404;28;20452;-71
2021/03/20 00:51:33;;;;;;;19.17;11.73;;;-1.00;99.90;;;;;;5054006;28;20550;-71
2021/03/20 00:54:00;;;;;;;16.50;11.80;;;-1.00;99.90;;;;;;5054234;28;20570;-71
2021/03/20 00:56:26;;;;;;;17.70;11.70;;;-1.00;99.90;;;;;;5054228;28;20535;-71
2021/03/20 00:58:53;;;;;;;15.80;12.00;;;-1.10;99.90;;;;;;5054447;28;20444;-71
2021/03/20 01:01:22;;;;;;;16.30;12.17;;;-1.00;99.90;;;;;;5054558;28;20551;-72
2021/03/20 01:03:49;;;;;;;17.53;12.20;;;-0.90;99.90;;;;;;5054397;28;20472;-72
2021/03/20 01:06:20;;;;;;;18.13;11.40;;;-0.90;99.90;;;;;;5054401;28;20444;-71
2021/03/20 01:08:46;;;;;;;16.67;10.97;;;-0.90;99.90;;;;;;5054196;28;20478;-71
2021/03/20 01:11:14;;;;;;;15.93;10.80;;;-0.90;99.90;;;;;;5053663;28;21096;-72
2021/03/20 01:13:41;;;;;;;14.13;10.13;;;-0.90;99.90;;;;;;5053792;28;20538;-71
2021/03/20 01:16:08;;;;;;;14.80;11.10;;;-1.00;99.90;;;;;;5054401;28;20446;-71
2021/03/20 01:18:35;;;;;;;15.00;11.50;;;-1.10;99.90;;;;;;5059097;28;20539;-71
2021/03/20 01:21:01;;;;;;;18.40;11.30;;;-1.10;99.90;;;;;;5054433;28;20474;-71
2021/03/20 01:23:29;;;;;;;17.00;13.40;;;-1.10;99.90;;;;;;5053384;28;20514;-72
2021/03/20 01:25:55;;;;;;;14.77;11.93;;;-1.10;99.90;;;;;;5053785;28;20535;-73
2021/03/20 01:28:25;;;;;;;14.33;10.07;;;-1.10;99.90;;;;;;5053445;28;20436;-72
2021/03/20 01:30:51;;;;;;;19.20;12.10;;;-1.10;99.90;;;;;;5053422;28;20578;-72
2021/03/20 01:33:18;;;;;;;17.60;12.30;;;-1.00;99.90;;;;;;5053706;28;20493;-72
2021/03/20 01:35:44;;;;;;;20.03;11.80;;;-1.10;99.90;;;;;;5053575;28;20527;-72
2021/03/20 01:38:11;;;;;;;14.73;11.50;;;-1.10;99.90;;;;;;5053863;28;20894;-72
2021/03/20 01:40:41;;;;;;;11.40;9.17;;;-1.10;99.90;;;;;;5053217;28;20468;-72
2021/03/20 01:43:09;;;;;;;12.47;9.57;;;-1.00;99.90;;;;;;5053946;28;20527;-73
2021/03/20 01:45:36;;;;;;;12.93;9.00;;;-0.90;99.90;;;;;;5053235;28;20527;-72
2021/03/20 01:48:08;;;;;;;13.47;9.80;;;-0.80;99.90;;;;;;5053787;28;20877;-73
2021/03/20 01:50:38;;;;;;;15.67;10.57;;;-0.70;99.90;;;;;;5052860;28;20495;-72
2021/03/20 01:53:16;;;;;;;15.37;9.93;;;-0.60;99.90;;;;;;5053166;28;20570;-72
2021/03/20 01:55:44;;;;;;;14.80;10.10;;;-0.60;99.90;;;;;;5053253;28;20474;-73
2021/03/20 01:58:11;;;;;;;13.67;10.70;;;-0.50;99.90;;;;;;5052880;28;20497;-74
2021/03/20 02:00:39;;;;;;;16.13;10.30;;;-0.40;99.90;;;;;;5052717;28;20547;-73
2021/03/20 02:03:08;;;;;;;16.23;10.50;;;-0.30;99.90;;;;;;5052933;28;20451;-71
2021/03/20 02:05:35;;;;;;;12.10;9.27;;;-0.30;99.90;;;;;;5052860;28;20531;-73
2021/03/20 02:08:04;;;;;;;12.70;9.30;;;-0.30;99.90;;;;;;5052888;28;20526;-72
2021/03/20 02:10:33;;;;;;;14.83;9.87;;;-0.20;99.90;;;;;;5052517;28;20543;-72
2021/03/20 02:13:07;;;;;;;13.33;10.07;;;-0.10;99.90;;;;;;5052527;28;20523;-72
2021/03/20 02:15:38;;;;;;;14.07;10.20;;;-0.10;99.90;;;;;;5052653;28;20539;-72
2021/03/20 02:18:12;;;;;;;12.27;9.23;;;0.00;99.90;;;;;;5052685;28;20463;-72
2021/03/20 02:20:57;;;;;;;16.37;11.47;;;0.00;99.90;;;;;;5052171;28;20477;-72
2021/03/20 02:24:06;;;;;;;13.53;8.40;;;0.00;99.90;;;;;;5052532;28;20455;-72
2021/03/20 02:27:03;;;;;;;10.20;7.53;;;0.30;99.90;;;;;;5052428;28;20515;-72
2021/03/20 02:30:07;;;;;;;9.73;7.90;;;0.40;99.90;;;;;;5052182;28;21005;-72
2021/03/20 02:32:49;;;;;;;10.60;7.90;;;0.50;99.90;;;;;;5052338;28;20518;-72
2021/03/20 02:35:24;;;;;;;9.10;7.53;;;0.50;99.90;;;;;;5052349;28;20526;-72
2021/03/20 02:37:57;;;;;;;11.10;7.30;;;0.60;99.90;;;;;;5052147;28;20447;-72
2021/03/20 02:40:32;;;;;;;10.33;8.20;;;0.60;99.90;;;;;;5051340;28;20470;-72
2021/03/20 02:43:03;;;;;;;10.73;8.50;;;0.70;99.90;;;;;;5052288;28;20547;-72
2021/03/20 02:45:36;;;;;;;9.53;7.77;;;0.70;99.90;;;;;;5052160;28;20604;-72
2021/03/20 02:48:12;;;;;;;11.93;8.47;;;0.70;99.90;;;;;;5052004;28;20447;-72
2021/03/20 02:50:44;;;;;;;13.93;9.37;;;0.70;99.90;;;;;;5051506;28;20546;-73
2021/03/20 02:53:18;;;;;;;11.90;8.93;;;0.70;99.90;;;;;;5052081;28;20582;-72
2021/03/20 02:55:48;;;;;;;10.40;7.73;;;0.70;99.90;;;;;;5051937;28;21009;-73
2021/03/20 02:58:17;;;;;;;11.55;9.10;;;0.60;99.90;;;;;;5051978;28;20538;-73
2021/03/20 03:00:49;;;;;;;13.60;7.97;;;0.60;99.90;;;;;;5051508;28;20308;-72
2021/03/20 03:03:18;;;;;;;10.50;7.40;;;0.70;99.90;;;;;;5051591;28;20447;-72
2021/03/20 03:05:50;;;;;;;11.43;8.60;;;0.70;99.90;;;;;;5052142;28;20549;-73
2021/03/20 03:08:24;;;;;;;11.67;8.87;;;0.80;99.90;;;;;;5051796;28;20534;-73
2021/03/20 03:10:55;;;;;;;11.80;8.33;;;0.70;99.90;;;;;;5051826;28;20471;-73
2021/03/20 03:13:25;;;;;;;12.60;9.03;;;0.80;99.90;;;;;;5051634;28;20537;-72
2021/03/20 03:15:57;;;;;;;9.40;7.40;;;0.80;99.90;;;;;;5051437;28;20829;-72
2021/03/20 03:18:29;;;;;;;10.47;7.97;;;0.80;99.90;;;;;;5051522;28;20527;-73
2021/03/20 03:20:59;;;;;;;9.83;8.30;;;0.90;99.90;;;;;;5051175;28;20878;-72
2021/03/20 03:23:28;;;;;;;12.10;8.33;;;0.80;99.90;;;;;;5051210;28;21011;-72
2021/03/20 03:26:00;;;;;;;10.17;7.53;;;0.80;99.90;;;;;;5051180;28;20536;-72
2021/03/20 03:28:29;;;;;;;10.07;8.47;;;0.80;99.90;;;;;;5051165;28;20448;-73
2021/03/20 03:30:56;;;;;;;10.80;7.90;;;0.80;99.90;;;;;;5050782;28;20554;-73
2021/03/20 03:33:27;;;;;;;12.20;8.60;;;0.80;99.90;;;;;;5051472;28;20946;-73
2021/03/20 03:35:57;;;;;;;12.73;9.43;;;0.80;99.90;;;;;;5051345;28;20499;-73
2021/03/20 03:38:31;;;;;;;13.00;9.50;;;0.70;99.90;;;;;;5051339;28;20523;-73
2021/03/20 03:41:01;;;;;;;12.20;9.17;;;0.70;99.90;;;;;;5050640;28;20570;-73
2021/03/20 03:43:28;;;;;;;12.37;9.00;;;0.70;99.90;;;;;;5051373;28;20471;-73
2021/03/20 03:45:55;;;;;;;10.17;9.10;;;0.70;99.90;;;;;;5051230;28;20447;-73
2021/03/20 03:48:24;;;;;;;11.70;8.97;;;0.70;99.90;;;;;;5050924;28;20543;-73
2021/03/20 03:50:53;;;;;;;11.00;8.50;;;0.70;99.90;;;;;;5050551;28;20550;-72
2021/03/20 03:53:24;;;;;;;9.73;8.07;;;0.70;99.90;;;;;;5050830;28;20508;-73
2021/03/20 03:55:56;;;;;;;11.73;8.57;;;0.70;99.90;;;;;;5051072;28;20476;-72
2021/03/20 03:58:45;;;;;;;11.47;7.83;;;0.70;99.90;;;;;;5050901;28;20480;-72
2021/03/20 04:01:20;;;;;;;11.03;8.00;;;0.70;99.90;;;;;;5050551;28;20466;-72
2021/03/20 04:04:02;;;;;;;8.07;6.63;;;0.70;99.90;;;;;;5050643;28;21161;-72
2021/03/20 04:06:49;;;;;;;10.87;7.77;;;0.60;99.90;;;;;;5050865;28;20872;-73
2021/03/20 04:09:28;;;;;;;9.40;7.27;;;0.60;99.90;;;;;;5050634;28;20456;-72
2021/03/20 04:12:01;;;;;;;10.77;8.40;;;0.60;99.90;;;;;;5050440;28;20471;-72
2021/03/20 04:14:35;;;;;;;10.87;8.17;;;0.50;99.90;;;;;;5050804;28;20480;-72
2021/03/20 04:17:08;;;;;;;9.63;7.70;;;0.40;99.90;;;;;;5050732;28;20856;-73
2021/03/20 04:19:44;;;;;;;8.70;6.90;;;0.40;99.90;;;;;;5050420;28;20477;-72
2021/03/20 04:22:15;;;;;;;8.87;7.60;;;0.30;99.90;;;;;;5050692;28;20550;-72
2021/03/20 04:24:47;;;;;;;10.63;7.97;;;0.20;99.90;;;;;;5050496;28;20440;-72
2021/03/20 04:27:15;;;;;;;11.17;8.20;;;0.10;99.90;;;;;;5050703;28;20534;-72
2021/03/20 04:29:47;;;;;;;8.33;6.70;;;0.10;99.90;;;;;;5050237;28;20533;-73
2021/03/20 04:32:19;;;;;;;13.20;8.50;;;0.00;99.90;;;;;;5050544;28;20479;-73
2021/03/20 04:34:51;;;;;;;12.43;8.30;;;0.00;99.90;;;;;;5050375;28;20479;-72
2021/03/20 04:37:23;;;;;;;12.87;8.53;;;-0.10;99.90;;;;;;5050966;28;20860;-73
2021/03/20 04:39:53;;;;;;;11.40;8.30;;;-0.10;99.90;;;;;;5050142;28;20530;-73
2021/03/20 04:42:23;;;;;;;14.70;8.73;;;-0.20;99.90;;;;;;5050486;28;20873;-73
2021/03/20 04:44:50;;;;;;;11.83;9.10;;;-0.10;99.90;;;;;;5050475;28;20536;-73
2021/03/20 04:47:24;;;;;;;11.27;8.17;;;-0.10;99.90;;;;;;5050257;28;20891;-72
2021/03/20 04:49:54;;;;;;;13.50;8.33;;;-0.10;99.90;;;;;;5049949;28;20515;-73
2021/03/20 04:52:27;;;;;;;12.93;8.00;;;-0.20;99.90;;;;;;5050193;28;21006;-72
2021/03/20 04:54:53;;;;;;;12.40;8.93;;;-0.20;99.90;;;;;;5050241;28;20511;-73
2021/03/20 04:57:27;;;;;;;10.80;7.63;;;-0.20;99.90;;;;;;5050330;28;20531;-73
2021/03/20 04:59:59;;;;;;;13.43;9.50;;;-0.20;99.90;;;;;;5049946;28;20855;-73
2021/03/20 05:02:31;;;;;;;12.90;8.30;;;-0.30;99.90;;;;;;5052199;28;20530;-73
2021/03/20 05:05:01;;;;;;;14.10;8.90;;;-0.30;99.90;;;;;;5054119;28;20526;-72
2021/03/20 05:07:31;;;;;;;11.77;8.70;;;-0.40;99.90;;;;;;5054217;28;20526;-72
2021/03/20 05:09:58;;;;;;;10.90;8.57;;;-0.50;99.90;;;;;;5057649;28;20447;-72
2021/03/20 05:12:27;;;;;;;11.93;8.90;;;-0.50;99.90;;;;;;5053967;28;20509;-73
2021/03/20 05:15:00;;;;;;;11.10;9.20;;;-0.50;99.90;;;;;;5053925;28;20549;-73
2021/03/20 05:17:27;;;;;;;12.70;9.80;;;-0.50;99.90;;;;;;5053905;28;20527;-73
2021/03/20 05:19:53;;;;;;;13.20;8.37;;;-0.60;99.90;;;;;;5053544;28;20530;-73
2021/03/20 05:22:28;;;;;;;11.90;9.07;;;-0.60;99.90;;;;;;5054286;28;20480;-72
2021/03/20 05:24:56;;;;;;;11.70;8.80;;;-0.60;99.90;;;;;;5053531;28;20526;-73
2021/03/20 05:27:25;;;;;;;12.30;9.40;;;-0.60;99.90;;;;;;5053666;28;20535;-72
2021/03/20 05:29:52;;;;;;;12.57;8.70;;;-0.50;99.90;;;;;;5053170;28;20871;-73
2021/03/20 05:32:24;;;;;;;11.83;8.43;;;-0.50;99.90;;;;;;5053526;28;20498;-72
2021/03/20 05:34:52;;;;;;;13.43;9.30;;;-0.50;99.90;;;;;;5053246;28;20573;-73
2021/03/20 05:37:23;;;;;;;12.73;9.20;;;-0.50;99.90;;;;;;5053182;28;20448;-72
2021/03/20 05:39:51;;;;;;;12.03;9.63;;;-0.50;99.90;;;;;;5053075;28;20519;-73
2021/03/20 05:42:46;;;;;;;12.30;9.40;;;-0.60;99.90;;;;;;5053374;28;20534;-73
2021/03/20 05:45:25;;;;;;;13.63;9.53;;;-0.60;99.90;;;;;;5053199;28;20474;-73
2021/03/20 05:48:05;;;;;;;11.80;9.00;;;-0.60;99.90;;;;;;5052978;28;20443;-73
2021/03/20 05:50:42;;;;;;;13.10;9.77;;;-0.60;99.90;;;;;;5052930;28;20535;-72
2021/03/20 05:53:31;;;;;;;13.63;9.47;;;-0.50;99.90;;;;;;5053181;28;20939;-73
2021/03/20 05:56:02;;;;;;;14.27;9.07;;;-0.50;99.90;;;;;;5052993;28;20534;-73
2021/03/20 05:58:42;;;;;;;11.23;8.90;;;-0.40;99.90;;;;;;5052884;28;20900;-73
2021/03/20 06:01:15;;;;;;;14.43;8.87;;;-0.40;99.90;;;;;;5052629;28;20708;-73
2021/03/20 06:04:00;;;;;;;11.07;8.63;;;-0.40;99.90;;;;;;5052885;28;20444;-73
2021/03/20 06:07:03;;;;;;;13.47;9.53;;;-0.30;99.90;;;;;;5052764;28;21192;-73
2021/03/20 06:09:36;;;;;;;10.27;8.60;;;-0.20;99.90;;;;;;5042217;28;20538;-73
2021/03/20 06:12:19;;;;;;;11.83;8.90;;;-0.10;99.90;;;;;;5052642;28;20585;-73
2021/03/20 06:15:00;;;;;;;12.00;9.10;;;-0.10;99.90;;;;;;5051401;28;20569;-73
2021/03/20 06:17:43;;;;;;;10.90;9.07;;;0.00;99.90;;;;;;5052783;28;20532;-73
2021/03/20 06:20:27;;;;;;;11.10;7.33;;;0.10;99.90;;;;;;5052337;28;20838;-73
2021/03/20 06:23:29;;;;;;;8.97;6.77;;;0.20;99.90;;;;;;5052291;28;20444;-73
2021/03/20 06:26:09;;;;;;;8.77;6.53;;;0.30;99.90;;;;;;5052463;28;20472;-73
2021/03/20 06:28:42;;;;;;;8.53;6.10;;;0.40;99.90;;;;;;5052416;28;20783;-72
2021/03/20 06:31:18;;;;;;;6.73;5.70;;;0.40;99.90;;;;;;5051971;28;20492;-72
2021/03/20 06:33:50;;;;;;;7.03;5.73;;;0.50;99.90;;;;;;5052184;28;20634;-72
2021/03/20 06:36:21;;;;;;;11.17;6.87;;;0.60;99.90;;;;;;5052282;28;20927;-73
2021/03/20 06:38:57;;;;;;;8.40;6.93;;;0.70;99.90;;;;;;5052184;28;21043;-73
2021/03/20 06:41:31;;;;;;;8.40;6.37;;;0.70;99.90;;;;;;5051708;28;20554;-72
2021/03/20 06:44:02;;;;;;;10.37;6.37;;;0.80;99.90;;;;;;5052035;28;20539;-72
2021/03/20 06:46:32;;;;;;;9.37;7.20;;;0.80;99.90;;;;;;5051904;28;20530;-72
2021/03/20 06:48:59;;;;;;;6.80;5.30;;;0.80;99.90;;;;;;5052178;28;20586;-72
2021/03/20 06:51:27;;;;;;;9.10;4.87;;;0.80;99.90;;;;;;5051655;28;20586;-72
2021/03/20 06:53:58;;;;;;;7.63;5.90;;;0.80;99.90;;;;;;5051799;28;20598;-73
2021/03/20 06:56:26;;;;;;;6.63;5.47;;;0.80;99.90;;;;;;5051647;28;20931;-72
2021/03/20 06:58:52;;;;;;;7.63;5.67;;;0.70;99.90;;;;;;5051780;28;20892;-72
2021/03/20 07:01:34;;;;;;;6.53;5.27;;;0.80;99.90;;;;;;5051575;28;20470;-72
2021/03/20 07:04:40;;;;;;;5.93;5.33;;;0.80;99.90;;;;;;5051842;28;20498;-72
2021/03/20 07:07:17;;;;;;;5.97;5.03;;;0.90;99.90;;;;;;5046155;28;20487;-73
2021/03/20 07:09:44;;;;;;;6.17;4.40;;;0.90;99.90;;;;;;5051187;28;20475;-72
2021/03/20 07:12:14;;;;;;;7.33;3.97;;;0.90;99.90;;;;;;5051464;28;20547;-72
2021/03/20 07:14:44;;;;;;;6.00;4.27;;;1.00;99.90;;;;;;5051359;28;20479;-72
2021/03/20 07:17:28;;;;;;;9.90;4.33;;;1.10;99.90;;;;;;5051626;28;20524;-72
2021/03/20 07:19:57;;;;;;;6.50;4.80;;;1.10;99.90;;;;;;5050979;28;20814;-73
2021/03/20 07:22:31;;;;;;;7.83;4.63;;;1.20;99.90;;;;;;5054755;23;20536;-71
2021/03/20 07:25:01;;;;;;;7.40;4.30;;;1.20;99.90;;;;;;5048085;28;20906;-70
2021/03/20 07:27:33;;;;;;;5.13;3.63;;;1.30;99.90;;;;;;5050720;28;20936;-71
2021/03/20 07:30:02;;;;;;;7.03;4.30;;;1.30;99.90;;;;;;5049932;28;20448;-71
2021/03/20 07:32:39;;;;;;;5.03;3.77;;;1.30;99.90;;;;;;5051335;28;20440;-70
2021/03/20 07:35:25;;;;;;;5.10;3.60;;;1.30;99.90;;;;;;5063045;23;20538;-68
2021/03/20 07:37:53;;;;;;;4.63;4.23;;;1.50;99.90;;;;;;5005060;28;20446;-68
2021/03/20 07:40:32;;;;;;;5.03;4.37;;;1.50;99.90;;;;;;5011768;28;20450;-68
2021/03/20 07:43:14;;;;;;;6.40;4.20;;;1.60;99.90;;;;;;5012130;28;20481;-68
2021/03/20 07:45:41;;;;;;;6.20;4.23;;;1.60;99.90;;;;;;5012040;28;20466;-68
2021/03/20 07:48:19;;;;;;;5.60;4.57;;;1.60;99.90;;;;;;5011924;28;20528;-68
2021/03/20 07:50:47;;;;;;;5.60;4.30;;;1.70;99.90;;;;;;5012001;28;20445;-69
2021/03/20 07:53:16;;;;;;;5.43;4.20;;;1.70;99.90;;;;;;5013538;28;20465;-69
2021/03/20 07:55:57;;;;;;;4.30;3.83;;;1.80;99.90;;;;;;5011756;28;20482;-69
2021/03/20 07:58:26;;;;;;;5.83;4.20;;;1.80;99.90;;;;;;5011959;28;20486;-69
2021/03/20 08:00:57;;;;;;;5.90;4.30;;;1.70;99.90;;;;;;4994051;28;20964;-69
2021/03/20 08:03:27;;;;;;;6.33;4.20;;;1.80;99.90;;;;;;4989415;28;20545;-69
2021/03/20 08:05:56;;;;;;;4.20;3.60;;;1.90;99.90;;;;;;4992262;28;20463;-69
2021/03/20 08:08:24;;;;;;;4.40;3.70;;;1.80;99.90;;;;;;4982175;28;20511;-69
2021/03/20 08:10:52;;;;;;;6.33;3.53;;;1.70;99.90;;;;;;4983464;28;20872;-70
2021/03/20 08:13:39;;;;;;;3.73;3.27;;;1.60;99.90;;;;;;4989914;28;20493;-69
2021/03/20 08:16:06;;;;;;;5.40;3.70;;;1.30;99.90;;;;;;4993538;28;20850;-69
2021/03/20 08:18:35;;;;;;;4.50;3.30;;;1.40;99.90;;;;;;4986486;28;20486;-69
2021/03/20 08:21:36;;;;;;;5.37;3.80;;;1.50;99.90;;;;;;4990234;28;20479;-69
2021/03/20 08:24:29;;;;;;;5.13;3.70;;;1.50;99.90;;;;;;4985425;28;20479;-69
2021/03/20 08:27:05;;;;;;;8.00;3.87;;;1.50;99.90;;;;;;4978739;28;20474;-69
2021/03/20 08:30:05;;;;;;;6.03;3.83;;;1.50;99.90;;;;;;4991838;28;20455;-69
2021/03/20 08:32:52;;;;;;;4.20;3.53;;;1.40;99.90;;;;;;4987132;28;20888;-70
2021/03/20 08:35:26;;;;;;;5.83;4.20;;;1.50;99.90;;;;;;4992781;28;20518;-69
2021/03/20 08:38:15;;;;;;;4.20;3.80;;;1.50;99.90;;;;;;4992973;28;20508;-70
2021/03/20 08:40:53;;;;;;;4.23;3.00;;;1.30;99.90;;;;;;4995950;28;20485;-69
2021/03/20 08:43:54;;;;;;;4.13;3.43;;;1.20;99.90;;;;;;4995828;28;20447;-69
2021/03/20 08:46:44;;;;;;;4.33;3.40;;;1.00;99.90;;;;;;4992858;28;20473;-69
2021/03/20 08:49:16;;;;;;;5.60;3.50;;;0.90;99.90;;;;;;4992510;28;20470;-69
2021/03/20 08:51:54;;;;;;;3.20;2.43;;;0.80;99.90;;;;;;4996019;28;20442;-69
2021/03/20 08:54:54;;;;;;;4.03;3.10;;;0.80;99.90;;;;;;4998770;28;20569;-69
2021/03/20 08:57:36;;;;;;;4.60;3.83;;;0.90;99.90;;;;;;5002239;28;20458;-70
2021/03/20 09:00:12;;;;;;;5.73;2.90;;;1.10;99.90;;;;;;5002236;28;20442;-70
2021/03/20 09:02:42;;;;;;;3.70;2.50;;;1.40;99.90;;;;;;5000097;28;20485;-69
2021/03/20 09:05:19;;;;;;;4.77;2.80;;;1.50;99.90;;;;;;4990686;28;20450;-69
2021/03/20 09:07:51;;;;;;;4.50;3.00;;;1.70;99.90;;;;;;4992343;28;20967;-69
2021/03/20 09:10:24;;;;;;;2.77;2.43;;;2.10;99.90;;;;;;4993115;28;20442;-70
2021/03/20 09:12:58;;;;;;;2.90;2.53;;;2.40;98.80;;;;;;4987954;28;20538;-69
2021/03/20 09:15:28;;;;;;;8.00;2.60;;;2.30;99.10;;;;;;4994395;28;20554;-69
2021/03/20 09:17:57;;;;;;;3.50;1.83;;;2.60;99.10;;;;;;4991637;28;20525;-69
2021/03/20 09:20:32;;;;;;;5.43;2.53;;;3.10;97.60;;;;;;4995294;28;20932;-69
2021/03/20 09:23:00;;;;;;;3.57;2.50;;;3.70;97.20;;;;;;4997324;28;20977;-70
2021/03/20 09:25:32;;;;;;;5.43;2.57;;;4.60;95.80;;;;;;4995940;28;20470;-69
2021/03/20 09:28:01;;;;;;;4.50;2.27;;;4.70;91.90;;;;;;4987543;28;20455;-69
2021/03/20 09:30:30;;;;;;;4.23;2.50;;;4.50;93.80;;;;;;4992849;28;20471;-70
2021/03/20 09:32:57;;;;;;;4.10;2.30;;;5.00;92.40;;;;;;4994896;28;20450;-68
2021/03/20 09:35:38;;;;;;;3.63;2.90;;;5.50;91.60;;;;;;4988766;28;21016;-67
2021/03/20 09:38:05;;;;;;;3.07;2.20;;;5.80;92.90;;;;;;4976336;28;20502;-67
2021/03/20 09:40:49;;;;;;;4.40;2.67;;;6.50;91.00;;;;;;4991875;28;20446;-67
2021/03/20 09:43:22;;;;;;;3.37;2.43;;;6.70;89.00;;;;;;4994042;28;20455;-67
2021/03/20 09:46:27;;;;;;;3.73;2.60;;;6.60;88.80;;;;;;4988114;28;20459;-67
2021/03/20 09:48:55;;;;;;;5.77;3.17;;;7.00;83.60;;;;;;4994546;28;20443;-69
2021/03/20 09:51:54;;;;;;;4.80;2.40;;;7.70;81.90;;;;;;4994237;28;20467;-67
2021/03/20 09:54:45;;;;;;;5.00;2.50;;;7.20;83.00;;;;;;4988623;28;20857;-66
2021/03/20 09:57:42;;;;;;;3.40;2.93;;;6.70;90.90;;;;;;4987280;28;21061;-68
2021/03/20 10:00:14;;;;;;;3.67;2.43;;;6.50;83.50;;;;;;4990985;28;20458;-67
2021/03/20 10:02:53;;;;;;;4.43;3.03;;;6.20;85.20;;;;;;4994870;28;20454;-68
2021/03/20 10:05:28;;;;;;;3.27;2.87;;;6.30;88.50;;;;;;4995569;28;20467;-67
2021/03/20 10:08:00;;;;;;;4.43;3.47;;;6.60;82.00;;;;;;4992954;28;20466;-68
2021/03/20 10:10:52;;;;;;;4.00;2.80;;;7.30;83.40;;;;;;4992303;28;20447;-68
2021/03/20 10:13:22;;;;;;;3.70;2.80;;;7.80;82.40;;;;;;4992904;28;20542;-68
2021/03/20 10:15:56;;;;;;;4.30;2.50;;;8.20;82.00;;;;;;4993822;28;20462;-67
2021/03/20 10:18:45;;;;;;;2.77;1.90;;;8.40;80.10;;;;;;4991050;28;20483;-66
2021/03/20 10:21:21;;;;;;;3.67;2.50;;;8.30;80.60;;;;;;4991937;28;20435;-68
2021/03/20 10:23:54;;;;;;;3.17;2.70;;;8.40;80.40;;;;;;4993597;28;20442;-67
2021/03/20 10:26:27;;;;;;;3.33;2.30;;;8.30;78.50;;;;;;4988402;28;20501;-67
2021/03/20 10:28:56;;;;;;;3.10;2.60;;;8.10;74.10;;;;;;4992860;28;20490;-67
2021/03/20 10:31:24;;;;;;;3.50;2.67;;;8.20;79.80;;;;;;4990481;28;20877;-67
2021/03/20 10:34:03;;;;;;;4.00;2.80;;;8.10;76.10;;;;;;4988501;28;20570;-67
2021/03/20 10:36:33;;;;;;;6.30;2.37;;;8.10;73.70;;;;;;4992495;28;20474;-69
2021/03/20 10:38:59;;;;;;;3.70;2.37;;;8.00;73.40;;;;;;4993854;28;20510;-67
2021/03/20 10:41:32;;;;;;;3.17;2.50;;;8.00;73.70;;;;;;4992618;28;20443;-66
2021/03/20 10:44:03;;;;;;;3.90;3.00;;;8.00;79.50;;;;;;4993551;28;20486;-67
2021/03/20 10:46:32;;;;;;;3.83;2.13;;;8.50;77.80;;;;;;4993432;28;20471;-66
2021/03/20 10:49:00;;;;;;;3.20;2.90;;;8.70;77.50;;;;;;4975824;28;20455;-67
2021/03/20 10:51:36;;;;;;;3.57;2.90;;;8.90;77.90;;;;;;4973973;28;20443;-68
2021/03/20 10:54:11;;;;;;;6.70;2.50;;;8.90;75.50;;;;;;4973456;28;20519;-67
2021/03/20 10:56:41;;;;;;;4.53;2.90;;;8.60;71.50;;;;;;4974850;28;20499;-68
2021/03/20 10:59:16;;;;;;;4.87;3.03;;;8.80;73.70;;;;;;4973663;28;20814;-68
2021/03/20 11:01:43;;;;;;;2.80;2.50;;;9.50;71.30;;;;;;4973311;28;20451;-67
2021/03/20 11:04:24;;;;;;;2.93;2.43;;;9.80;68.10;;;;;;4973449;28;20455;-68
2021/03/20 11:06:53;;;;;;;6.50;2.93;;;9.90;68.60;;;;;;4974245;28;20554;-69
2021/03/20 11:09:22;;;;;;;3.90;2.90;;;10.50;67.60;;;;;;4988924;28;20451;-68
2021/03/20 11:11:58;;;;;;;3.47;2.80;;;8.90;67.40;;;;;;4992671;28;20834;-67
2021/03/20 11:14:24;;;;;;;4.37;3.03;;;8.00;70.50;;;;;;4989633;28;20482;-68
2021/03/20 11:16:55;;;;;;;5.10;2.93;;;7.50;69.50;;;;;;4991620;28;20533;-67
2021/03/20 11:19:30;;;;;;;4.03;2.80;;;7.20;68.90;;;;;;4992811;28;20482;-67
2021/03/20 11:22:00;;;;;;;3.20;2.60;;;7.30;73.20;;;;;;4993097;28;20709;-68
2021/03/20 11:24:33;;;;;;;4.10;2.97;;;7.80;69.80;;;;;;4993491;28;20443;-66
2021/03/20 11:27:16;;;;;;;6.30;2.90;;;8.40;70.40;;;;;;4992423;28;20558;-67
2021/03/20 11:29:45;;;;;;;4.23;2.93;;;9.70;72.10;;;;;;4987340;28;21152;-68
2021/03/20 11:32:27;;;;;;;3.50;2.63;;;10.30;66.40;;;;;;4991167;28;20439;-67
2021/03/20 11:35:08;;;;;;;2.97;2.57;;;9.90;67.60;;;;;;4991688;28;20974;-67
2021/03/20 11:37:36;;;;;;;3.67;3.00;;;10.10;64.20;;;;;;4991385;28;20446;-68
2021/03/20 11:40:05;;;;;;;4.47;2.87;;;11.00;66.40;;;;;;4991292;28;20449;-68
2021/03/20 11:42:37;;;;;;;3.70;2.70;;;12.20;63.70;;;;;;4992242;28;20451;-67
2021/03/20 11:45:15;;;;;;;4.73;3.07;;;13.20;58.80;;;;;;4992180;28;20501;-68
2021/03/20 11:47:48;;;;;;;3.53;2.83;;;13.30;55.80;;;;;;4991706;28;20484;-67
2021/03/20 11:50:17;;;;;;;3.43;3.10;;;13.20;57.90;;;;;;4992162;28;20443;-68
2021/03/20 11:52:50;;;;;;;4.30;3.13;;;13.50;58.20;;;;;;4992305;28;20478;-67
2021/03/20 11:55:20;;;;;;;3.30;3.00;;;14.50;56.30;;;;;;4990069;28;20497;-67
2021/03/20 11:57:50;;;;;;;3.33;3.03;;;15.20;54.90;;;;;;4986012;28;20443;-68
2021/03/20 12:00:39;;;;;;;3.60;3.00;;;15.50;55.70;;;;;;4990902;28;20931;-67
2021/03/20 12:03:24;;;;;;;3.63;3.00;;;13.80;53.00;;;;;;4990492;28;20949;-68
2021/03/20 12:05:52;;;;;;;6.13;3.50;;;11.00;56.60;;;;;;4992342;28;20459;-68
2021/03/20 12:08:28;;;;;;;6.90;3.93;;;8.90;63.70;;;;;;4993051;28;20470;-66
2021/03/20 12:10:57;;;;;;;3.30;3.00;;;7.80;60.60;;;;;;4993442;28;20465;-67
2021/03/20 12:13:44;;;;;;;3.50;2.73;;;7.60;62.60;;;;;;4991440;28;20450;-67
2021/03/20 12:16:28;;;;;;;3.50;3.10;;;7.30;61.50;;;;;;4992602;28;20809;-68
2021/03/20 12:19:06;;;;;;;4.03;3.47;;;6.80;66.50;;;;;;4991261;28;20912;-67
2021/03/20 12:21:33;;;;;;;3.50;2.93;;;8.00;74.10;;;;;;4989670;28;20478;-67
2021/03/20 12:24:01;;;;;;;3.77;3.00;;;9.80;65.70;;;;;;4991580;28;20439;-69
2021/03/20 12:26:30;;;;;;;3.40;2.40;;;11.20;62.30;;;;;;4992203;28;20509;-68
2021/03/20 12:29:32;;;;;;;5.10;3.60;;;10.20;60.60;;;;;;4992573;28;20498;-67
2021/03/20 12:32:16;;;;;;;4.53;3.13;;;8.80;68.20;;;;;;4992785;28;20453;-67
2021/03/20 12:34:43;;;;;;;3.70;3.30;;;7.70;67.70;;;;;;4989233;28;20549;-69
2021/03/20 12:37:17;;;;;;;7.20;3.50;;;7.10;66.10;;;;;;4987999;28;20514;-70
2021/03/20 12:39:43;;;;;;;5.00;3.20;;;7.70;66.40;;;;;;4990567;28;20457;-69
2021/03/20 12:42:10;;;;;;;4.83;4.27;;;8.40;67.20;;;;;;4991292;28;20490;-70
2021/03/20 12:44:43;;;;;;;5.00;3.50;;;9.80;64.80;;;;;;4991184;28;20525;-70
2021/03/20 12:47:14;;;;;;;4.10;3.70;;;10.80;60.30;;;;;;4990849;28;20478;-70
2021/03/20 12:49:41;;;;;;;3.80;3.10;;;11.50;56.90;;;;;;4989860;28;20631;-70
2021/03/20 12:52:11;;;;;;;3.37;2.93;;;12.30;57.30;;;;;;4980940;28;20490;-70
2021/03/20 12:54:40;;;;;;;3.90;3.40;;;12.30;56.10;;;;;;4983198;28;20537;-70
2021/03/20 12:57:08;;;;;;;4.33;3.93;;;11.40;56.60;;;;;;4990682;28;20481;-70
2021/03/20 12:59:34;;;;;;;4.63;3.03;;;10.80;57.30;;;;;;4991027;28;20442;-70
2021/03/20 13:02:01;;;;;;;4.90;2.70;;;10.00;57.60;;;;;;4990232;28;20442;-73
2021/03/20 13:04:28;;;;;;;2.90;2.53;;;9.60;59.60;;;;;;4989904;28;20454;-71
2021/03/20 13:06:54;;;;;;;3.77;2.80;;;9.50;59.10;;;;;;4990266;28;21003;-72
2021/03/20 13:09:21;;;;;;;5.40;3.07;;;10.30;59.70;;;;;;4990239;28;20518;-72
2021/03/20 13:14:21;;;;;;;3.60;2.87;;;13.00;53.90;;;;;;5066050;23;20542;-69
2021/03/20 13:16:47;;;;;;;4.93;3.70;;;13.50;53.30;;;;;;5030181;28;20529;-70
2021/03/20 13:19:14;;;;;;;4.53;3.80;;;13.20;56.30;;;;;;5028955;28;20469;-70
2021/03/20 13:21:41;;;;;;;3.80;3.23;;;13.80;52.80;;;;;;5042550;28;20872;-70